EST,Max TemperatureF,Mean TemperatureF,Min TemperatureF,Max Dew PointF,MeanDew PointF,Min DewpointF,Max Humidity, Mean Humidity, Min Humidity, Max Sea Level PressureIn, Mean Sea Level PressureIn, Min Sea Level PressureIn, Max VisibilityMiles, Mean VisibilityMiles, Min VisibilityMiles, Max Wind SpeedMPH, Mean Wind SpeedMPH, Max Gust SpeedMPH,PrecipitationIn, CloudCover, Events, WindDirDegrees
2011-11-1,54,40,28,40,32,28,100,90,50,30.37,30.33,30.29,10,5,1,10,1,17,0.00,1,,14
2011-11-2,57,42,27,41,32,25,100,91,40,30.39,30.31,30.23,10,5,0,7,1,,0.00,0,Fog,287
2011-11-3,60,44,28,46,37,28,100,85,55,30.23,30.09,29.89,10,7,2,13,2,20,0.00,0,,217
2011-11-4,51,44,36,45,33,19,100,71,29,30.22,30.04,29.88,10,7,1,16,4,25,0.00,1,,327
2011-11-5,50,36,24,30,25,23,93,70,44,30.47,30.37,30.22,10,9,2,9,5,,0.00,0,,333
2011-11-6,55,37,19,40,29,18,100,76,38,30.51,30.44,30.35,10,9,2,13,3,20,0.00,0,,218
2011-11-7,62,53,44,44,41,38,90,70,41,30.32,30.25,30.18,10,10,10,12,6,20,0.00,0,,228
2011-11-8,69,53,37,46,43,37,100,81,39,30.25,30.21,30.17,10,7,1,6,1,,0.00,0,,251
2011-11-9,68,52,36,54,44,36,100,93,42,30.21,30.16,30.05,10,4,0,8,1,,0.00,2,Fog,157
2011-11-10,62,58,53,61,59,53,100,99,90,30.03,29.70,29.48,10,6,1,12,4,,0.88,8,Rain,184
2011-11-11,57,48,39,55,38,26,97,71,42,29.88,29.67,29.47,10,10,10,17,9,30,0.01,5,Rain,287
2011-11-12,51,44,36,38,32,27,89,61,39,30.12,30.04,29.91,10,10,10,15,8,33,0.00,0,,227
2011-11-13,61,46,30,52,40,30,100,83,57,30.17,30.10,29.98,10,8,1,17,3,26,0.00,0,,202
2011-11-14,64,60,55,55,51,46,89,77,58,29.97,29.86,29.75,10,10,10,15,13,24,0.00,3,Rain,208
2011-11-15,68,61,54,55,52,48,93,74,50,29.96,29.82,29.72,10,10,10,12,7,20,0.00,5,,230
2011-11-16,57,54,51,56,54,51,100,97,90,29.97,29.80,29.69,10,8,2,8,1,,0.70,8,Rain,256
2011-11-17,54,46,37,54,40,31,100,88,56,29.91,29.79,29.69,10,9,5,12,5,20,0.25,8,Rain,307
2011-11-18,45,36,26,27,24,21,96,65,39,30.41,30.25,29.93,10,10,9,16,7,24,0.00,0,,269
2011-11-19,53,40,27,48,34,25,96,68,39,30.40,30.33,30.24,10,10,10,18,7,29,0.00,1,,212
2011-11-20,63,57,46,49,47,44,97,74,56,30.21,30.09,30.02,10,10,9,14,9,26,0.00,2,,213
2011-11-21,51,38,26,49,34,25,100,80,56,30.37,30.28,30.09,10,8,1,12,3,16,0.00,3,,37
2011-11-22,46,35,24,41,29,22,100,84,54,30.41,30.35,30.18,10,7,1,7,1,,0.10,2,Rain,101
2011-11-23,48,42,36,48,42,29,100,94,76,30.16,29.78,29.56,10,7,2,17,8,30,1.19,8,Rain,10
2011-11-24,46,37,28,31,28,26,100,78,48,30.18,30.09,29.94,10,9,3,10,5,17,0.00,1,,316
2011-11-25,59,42,26,42,35,25,96,74,44,30.12,30.07,30.02,10,9,5,9,3,,0.00,0,,213
2011-11-26,64,48,32,42,37,31,100,74,35,30.21,30.18,30.13,10,9,4,8,3,,0.00,0,,255
2011-11-27,60,44,28,52,38,28,100,92,51,30.22,30.18,30.14,10,5,0,12,1,20,0.00,2,Fog,188
2011-11-28,63,59,53,52,51,50,89,77,65,30.16,30.13,30.11,10,10,10,13,9,22,0.00,1,,214
2011-11-29,66,56,46,61,53,45,100,88,54,30.14,30.01,29.70,10,8,1,21,5,31,0.01,5,Rain,137
2011-11-30,64,50,37,63,48,34,97,82,53,29.85,29.68,29.64,10,8,2,22,12,37,0.61,6,Rain,207